createdAt,value
2023-02-19T00:01:13.461Z,0.90
2023-02-19T00:03:40.942Z,0.80
2023-02-19T00:06:10.818Z,0.80
2023-02-19T00:08:39.813Z,0.67
2023-02-19T00:11:15.504Z,1.03
2023-02-19T00:13:45.490Z,0.73
2023-02-19T00:16:14.950Z,0.77
2023-02-19T00:18:43.156Z,1.10
2023-02-19T00:21:10.775Z,1.00
2023-02-19T00:23:38.683Z,1.00
2023-02-19T00:26:17.684Z,0.70
2023-02-19T00:28:47.274Z,0.87
2023-02-19T00:31:33.192Z,0.90
2023-02-19T00:34:05.651Z,0.83
2023-02-19T00:36:36.510Z,0.67
2023-02-19T00:39:05.087Z,0.90
2023-02-19T00:41:32.286Z,0.97
2023-02-19T00:44:07.847Z,0.73
2023-02-19T00:46:40.458Z,0.80
2023-02-19T00:49:12.180Z,1.20
2023-02-19T00:51:39.481Z,0.83
2023-02-19T00:54:06.672Z,0.80
2023-02-19T00:56:33.613Z,1.10
2023-02-19T00:59:00.982Z,0.97
2023-02-19T01:01:27.810Z,0.80
2023-02-19T01:03:54.981Z,0.90
2023-02-19T01:06:22.262Z,1.10
2023-02-19T01:08:49.424Z,1.20
2023-02-19T01:11:17.128Z,1.00
2023-02-19T01:13:44.600Z,1.30
2023-02-19T01:16:11.547Z,0.90
2023-02-19T01:18:38.717Z,1.23
2023-02-19T01:21:12.578Z,0.80
2023-02-19T01:23:40.251Z,0.97
2023-02-19T01:26:13.899Z,1.10
2023-02-19T01:28:40.871Z,0.97
2023-02-19T01:31:13.926Z,1.10
2023-02-19T01:33:45.263Z,1.07
2023-02-19T01:36:11.994Z,1.37
2023-02-19T01:38:39.611Z,1.10
2023-02-19T01:41:08.813Z,1.20
2023-02-19T01:44:01.489Z,1.50
2023-02-19T01:46:30.874Z,1.30
2023-02-19T01:49:00.655Z,1.30
2023-02-19T01:51:28.256Z,1.67
2023-02-19T01:53:59.536Z,1.50
2023-02-19T01:56:27.834Z,1.87
2023-02-19T01:58:55.415Z,1.17
2023-02-19T02:01:22.163Z,1.00
2023-02-19T02:03:50.690Z,1.40
2023-02-19T02:06:23.511Z,1.43
2023-02-19T02:09:11.909Z,1.13
2023-02-19T02:11:42.896Z,1.43
2023-02-19T02:14:10.203Z,1.30
2023-02-19T02:16:45.748Z,1.63
2023-02-19T02:19:15.610Z,1.30
2023-02-19T02:21:54.201Z,1.50
2023-02-19T02:24:43.214Z,1.30
2023-02-19T02:27:25.931Z,1.40
2023-02-19T02:30:15.782Z,1.47
2023-02-19T02:32:59.209Z,1.47
2023-02-19T02:35:34.627Z,1.47
2023-02-19T02:38:04.952Z,1.57
2023-02-19T02:40:32.433Z,1.30
2023-02-19T02:43:01.189Z,1.30
2023-02-19T02:45:37.423Z,1.43
2023-02-19T02:48:41.264Z,1.60
2023-02-19T02:51:25.711Z,1.43
2023-02-19T02:54:38.480Z,1.67
2023-02-19T02:57:14.761Z,1.70
2023-02-19T02:59:56.799Z,1.40
2023-02-19T03:02:31.325Z,1.20
2023-02-19T03:05:41.509Z,1.60
2023-02-19T03:08:16.871Z,1.63
2023-02-19T03:10:47.465Z,1.50
2023-02-19T03:13:46.233Z,1.57
2023-02-19T03:16:47.471Z,1.53
2023-02-19T03:19:20.791Z,2.03
2023-02-19T03:22:01.556Z,1.50
2023-02-19T03:24:54.775Z,1.23
2023-02-19T03:27:25.901Z,1.50
2023-02-19T03:29:59.151Z,1.33
2023-02-19T03:32:33.475Z,1.40
2023-02-19T03:35:21.038Z,1.97
2023-02-19T03:38:09.860Z,1.40
2023-02-19T03:40:52.909Z,1.93
2023-02-19T03:43:41.634Z,1.60
2023-02-19T03:47:07.717Z,1.40
2023-02-19T03:50:00.777Z,1.67
2023-02-19T03:52:40.259Z,1.43
2023-02-19T03:55:18.089Z,1.80
2023-02-19T03:57:56.384Z,1.50
2023-02-19T04:00:37.128Z,1.53
2023-02-19T04:03:03.832Z,1.70
2023-02-19T04:05:35.064Z,1.50
2023-02-19T04:08:12.538Z,1.70
2023-02-19T04:10:49.477Z,1.93
2023-02-19T04:13:30.386Z,1.97
2023-02-19T04:16:03.339Z,2.27
2023-02-19T04:18:36.339Z,2.40
2023-02-19T04:21:04.700Z,2.10
2023-02-19T04:23:37.521Z,2.13
2023-02-19T04:26:05.370Z,2.13
2023-02-19T04:28:32.093Z,2.13
2023-02-19T04:30:58.775Z,2.10
2023-02-19T04:33:26.464Z,2.10
2023-02-19T04:35:53.194Z,1.97
2023-02-19T04:38:20.010Z,1.73
2023-02-19T04:40:47.234Z,1.83
2023-02-19T04:43:14.142Z,1.80
2023-02-19T04:45:41.735Z,1.27
2023-02-19T04:48:09.108Z,1.50
2023-02-19T04:50:39.376Z,0.90
2023-02-19T04:53:07.315Z,1.10
2023-02-19T04:55:38.449Z,1.20
2023-02-19T04:58:05.385Z,1.20
2023-02-19T05:00:33.955Z,1.17
2023-02-19T05:03:01.519Z,1.10
2023-02-19T05:05:28.672Z,1.20
2023-02-19T05:07:55.660Z,1.10
2023-02-19T05:10:22.428Z,1.20
2023-02-19T05:12:49.182Z,0.90
2023-02-19T05:15:16.180Z,1.00
2023-02-19T05:17:42.981Z,1.27
2023-02-19T05:20:09.884Z,1.20
2023-02-19T05:22:36.796Z,1.07
2023-02-19T05:25:04.470Z,1.20
2023-02-19T05:27:32.234Z,0.90
2023-02-19T05:29:59.176Z,1.10
2023-02-19T05:32:26.688Z,1.40
2023-02-19T05:34:53.390Z,1.30
2023-02-19T05:37:20.145Z,1.10
2023-02-19T05:39:48.067Z,1.30
2023-02-19T05:42:15.544Z,1.20
2023-02-19T05:44:42.843Z,1.10
2023-02-19T05:47:09.755Z,1.20
2023-02-19T05:49:36.523Z,1.07
2023-02-19T05:52:03.973Z,1.00
2023-02-19T05:54:31.713Z,1.10
2023-02-19T05:56:58.553Z,0.70
2023-02-19T05:59:27.125Z,1.03
2023-02-19T06:01:55.601Z,0.90
2023-02-19T06:04:23.529Z,1.40
2023-02-19T06:06:50.698Z,1.00
2023-02-19T06:09:17.930Z,1.10
2023-02-19T06:11:45.382Z,0.90
2023-02-19T06:14:13.810Z,0.90
2023-02-19T06:16:40.960Z,1.10
2023-02-19T06:19:08.061Z,0.90
2023-02-19T06:21:34.824Z,0.80
2023-02-19T06:24:06.669Z,0.97
2023-02-19T06:26:34.524Z,1.37
2023-02-19T06:29:01.584Z,0.87
2023-02-19T06:31:28.459Z,1.00
2023-02-19T06:33:55.397Z,0.80
2023-02-19T06:36:23.250Z,0.90
2023-02-19T06:38:51.286Z,0.90
2023-02-19T06:41:19.394Z,0.70
2023-02-19T06:43:46.819Z,0.90
2023-02-19T06:46:14.498Z,0.80
2023-02-19T06:48:42.772Z,0.93
2023-02-19T06:51:13.260Z,1.00
2023-02-19T06:53:40.270Z,1.10
2023-02-19T06:56:25.153Z,0.97
2023-02-19T06:58:53.571Z,1.40
2023-02-19T07:01:20.878Z,1.57
2023-02-19T07:03:47.664Z,0.90
2023-02-19T07:06:14.872Z,1.40
2023-02-19T07:08:41.752Z,1.40
2023-02-19T07:11:08.612Z,1.33
2023-02-19T07:13:35.429Z,1.57
2023-02-19T07:16:05.396Z,1.80
2023-02-19T07:18:32.350Z,1.60
2023-02-19T07:21:07.005Z,1.67
2023-02-19T07:23:34.698Z,1.37
2023-02-19T07:26:01.798Z,1.60
2023-02-19T07:28:28.584Z,2.23
2023-02-19T07:31:01.227Z,1.90
2023-02-19T07:33:28.360Z,2.00
2023-02-19T07:35:55.126Z,1.73
2023-02-19T07:38:23.529Z,1.90
2023-02-19T07:40:54.912Z,1.90
2023-02-19T07:43:23.242Z,2.07
2023-02-19T07:45:51.026Z,1.97
2023-02-19T07:48:18.786Z,1.80
2023-02-19T07:50:52.445Z,1.23
2023-02-19T07:53:20.033Z,1.70
2023-02-19T07:55:46.837Z,1.73
2023-02-19T07:58:14.361Z,1.67
2023-02-19T08:00:41.172Z,1.53
2023-02-19T08:03:08.072Z,1.60
2023-02-19T08:05:39.823Z,1.43
2023-02-19T08:08:11.974Z,1.77
2023-02-19T08:10:58.317Z,1.67
2023-02-19T08:13:26.597Z,1.47
2023-02-19T08:16:01.712Z,1.50
2023-02-19T08:18:35.114Z,1.33
2023-02-19T08:21:01.893Z,1.27
2023-02-19T08:23:29.257Z,1.07
2023-02-19T08:26:00.250Z,1.30
2023-02-19T08:28:27.712Z,1.40
2023-02-19T08:31:00.338Z,1.40
2023-02-19T08:33:28.147Z,1.60
2023-02-19T08:35:55.320Z,1.33
2023-02-19T08:38:22.709Z,1.03
2023-02-19T08:40:49.561Z,1.30
2023-02-19T08:43:19.369Z,1.53
2023-02-19T08:45:47.863Z,4.47
2023-02-19T08:48:14.828Z,1.23
2023-02-19T08:50:41.581Z,1.00
2023-02-19T08:53:08.530Z,1.00
2023-02-19T08:55:38.386Z,1.30
2023-02-19T08:58:05.593Z,1.00
2023-02-19T09:00:32.623Z,0.70
2023-02-19T09:02:59.588Z,1.00
2023-02-19T09:05:26.348Z,0.90
2023-02-19T09:07:53.227Z,2.10
2023-02-19T09:10:19.955Z,0.90
2023-02-19T09:12:47.045Z,0.90
2023-02-19T09:15:14.578Z,0.80
2023-02-19T09:17:41.338Z,0.80
2023-02-19T09:20:09.209Z,1.00
2023-02-19T09:22:36.783Z,1.60
2023-02-19T09:25:03.711Z,2.03
2023-02-19T09:27:32.310Z,2.10
2023-02-19T09:29:59.468Z,1.50
2023-02-19T09:32:26.213Z,3.63
2023-02-19T09:34:52.947Z,1.00
2023-02-19T09:37:20.059Z,1.20
2023-02-19T09:39:46.798Z,0.70
2023-02-19T09:42:18.591Z,0.80
2023-02-19T09:44:50.154Z,1.20
2023-02-19T09:47:23.353Z,1.60
2023-02-19T09:49:55.790Z,1.47
2023-02-19T09:52:32.590Z,0.83
2023-02-19T09:55:03.533Z,0.70
2023-02-19T09:57:33.697Z,0.67
2023-02-19T10:00:10.384Z,0.80
2023-02-19T10:02:37.889Z,0.70
2023-02-19T10:05:14.060Z,1.00
2023-02-19T10:07:44.893Z,0.77
2023-02-19T10:10:14.837Z,0.90
2023-02-19T10:12:47.773Z,0.70
2023-02-19T10:15:25.530Z,0.70
2023-02-19T10:17:52.287Z,0.50
2023-02-19T10:20:24.739Z,0.70
2023-02-19T10:23:07.041Z,1.00
2023-02-19T10:25:35.401Z,0.50
2023-02-19T10:28:02.859Z,1.40
2023-02-19T10:30:35.819Z,0.60
2023-02-19T10:33:09.210Z,0.80
2023-02-19T10:35:39.150Z,0.90
2023-02-19T10:38:09.922Z,1.17
2023-02-19T10:40:47.353Z,0.90
2023-02-19T10:43:31.279Z,1.03
2023-02-19T10:46:00.122Z,0.70
2023-02-19T10:48:35.190Z,1.00
2023-02-19T10:51:07.273Z,0.60
2023-02-19T10:53:41.770Z,0.73
2023-02-19T10:56:16.245Z,0.70
2023-02-19T10:58:45.096Z,1.50
2023-02-19T11:01:12.326Z,0.97
2023-02-19T11:03:39.381Z,0.83
2023-02-19T11:06:09.375Z,0.80
2023-02-19T11:08:51.877Z,3.00
2023-02-19T11:11:25.713Z,1.53
2023-02-19T11:13:54.604Z,2.10
2023-02-19T11:16:21.909Z,1.67
2023-02-19T11:18:57.307Z,0.83
2023-02-19T11:21:33.612Z,0.80
2023-02-19T11:24:06.187Z,0.70
2023-02-19T11:26:38.280Z,1.00
2023-02-19T11:29:37.630Z,0.60
2023-02-19T11:32:29.924Z,0.60
2023-02-19T11:35:17.843Z,0.70
2023-02-19T11:37:58.392Z,0.70
2023-02-19T11:40:44.601Z,0.57
2023-02-19T11:43:14.474Z,0.67
2023-02-19T11:45:57.644Z,0.67
2023-02-19T11:48:36.388Z,0.73
2023-02-19T11:51:13.716Z,0.70
2023-02-19T11:53:49.763Z,0.50
2023-02-19T11:56:26.147Z,0.50
2023-02-19T11:59:01.427Z,0.50
2023-02-19T12:01:39.371Z,0.40
2023-02-19T12:04:09.122Z,0.30
2023-02-19T12:06:45.035Z,0.30
2023-02-19T12:09:30.124Z,0.30
2023-02-19T12:12:26.830Z,0.30
2023-02-19T12:15:22.890Z,0.40
2023-02-19T12:18:14.837Z,0.33
2023-02-19T12:21:23.919Z,0.40
2023-02-19T12:24:11.862Z,0.30
2023-02-19T12:27:06.659Z,0.30
2023-02-19T12:30:03.021Z,0.40
2023-02-19T12:33:03.658Z,0.37
2023-02-19T12:35:43.072Z,0.40
2023-02-19T12:38:25.206Z,0.40
2023-02-19T12:41:20.423Z,0.40
2023-02-19T12:43:55.433Z,0.30
2023-02-19T12:46:33.086Z,0.50
2023-02-19T12:49:24.064Z,0.50
2023-02-19T12:51:58.601Z,0.50
2023-02-19T12:54:34.494Z,0.50
2023-02-19T12:57:15.983Z,0.57
2023-02-19T12:59:50.521Z,0.60
2023-02-19T13:02:45.408Z,0.80
2023-02-19T13:05:21.152Z,0.60
2023-02-19T13:07:59.376Z,0.50
2023-02-19T13:10:42.152Z,0.50
2023-02-19T13:13:25.544Z,0.53
2023-02-19T13:16:02.614Z,0.50
2023-02-19T13:18:37.200Z,1.13
2023-02-19T13:21:06.340Z,0.73
2023-02-19T13:24:03.232Z,0.80
2023-02-19T13:26:56.413Z,0.67
2023-02-19T13:29:32.323Z,0.80
2023-02-19T13:32:30.402Z,0.60
2023-02-19T13:35:19.010Z,0.77
2023-02-19T13:37:46.940Z,0.40
2023-02-19T13:40:37.382Z,0.40
2023-02-19T13:43:23.526Z,0.70
2023-02-19T13:45:59.239Z,0.90
2023-02-19T13:48:35.308Z,0.50
2023-02-19T13:51:23.511Z,0.40
2023-02-19T13:53:58.344Z,0.30
2023-02-19T13:56:34.290Z,0.43
2023-02-19T13:59:23.620Z,0.40
2023-02-19T14:01:53.670Z,1.17
2023-02-19T14:04:23.734Z,4.47
2023-02-19T14:07:05.987Z,1.70
2023-02-19T14:09:43.794Z,0.40
2023-02-19T14:12:10.479Z,1.53
2023-02-19T14:14:40.067Z,1.60
2023-02-19T14:17:09.892Z,1.20
2023-02-19T14:19:42.774Z,1.00
2023-02-19T14:22:50.269Z,0.70
2023-02-19T14:25:32.087Z,1.30
2023-02-19T14:28:11.601Z,1.77
2023-02-19T14:30:47.477Z,1.10
2023-02-19T14:33:17.684Z,1.57
2023-02-19T14:35:47.417Z,0.97
2023-02-19T14:38:28.624Z,0.40
2023-02-19T14:40:55.888Z,0.80
2023-02-19T14:43:25.302Z,1.10
2023-02-19T14:45:59.065Z,0.63
2023-02-19T14:48:39.716Z,0.50
2023-02-19T14:51:24.241Z,0.70
2023-02-19T14:53:52.977Z,0.90
2023-02-19T14:56:26.728Z,0.77
2023-02-19T14:59:20.770Z,0.40
2023-02-19T15:01:57.260Z,0.50
2023-02-19T15:04:31.569Z,0.60
2023-02-19T15:07:02.560Z,0.40
2023-02-19T15:09:36.766Z,0.30
2023-02-19T15:12:04.202Z,0.50
2023-02-19T15:14:32.574Z,0.60
2023-02-19T15:17:05.205Z,1.20
2023-02-19T15:19:36.748Z,0.60
2023-02-19T15:22:03.662Z,0.40
2023-02-19T15:24:30.782Z,0.53
2023-02-19T15:26:57.977Z,0.80
2023-02-19T15:29:27.611Z,0.50
2023-02-19T15:31:59.843Z,0.30
2023-02-19T15:34:32.028Z,0.57
2023-02-19T15:37:02.965Z,0.40
2023-02-19T15:39:41.404Z,0.33
2023-02-19T15:42:17.176Z,0.60
2023-02-19T15:44:59.558Z,0.70
2023-02-19T15:47:34.010Z,0.60
2023-02-19T15:50:17.243Z,0.50
2023-02-19T15:53:10.145Z,0.50
2023-02-19T15:55:40.169Z,0.53
2023-02-19T15:58:20.159Z,0.63
2023-02-19T16:00:55.185Z,0.50
2023-02-19T16:03:30.079Z,0.30
2023-02-19T16:06:00.455Z,0.40
2023-02-19T16:08:35.968Z,0.30
2023-02-19T16:11:27.675Z,0.40
2023-02-19T16:14:19.238Z,0.40
2023-02-19T16:16:48.917Z,1.30
2023-02-19T16:19:22.015Z,3.13
2023-02-19T16:21:49.476Z,0.60
2023-02-19T16:24:28.070Z,0.33
2023-02-19T16:26:56.323Z,1.10
2023-02-19T16:29:25.522Z,0.50
2023-02-19T16:31:59.482Z,0.80
2023-02-19T16:34:44.256Z,0.40
2023-02-19T16:37:59.564Z,0.33
2023-02-19T16:40:35.312Z,0.80
2023-02-19T16:43:05.265Z,1.20
2023-02-19T16:45:32.209Z,0.60
2023-02-19T16:47:59.232Z,0.40
2023-02-19T16:50:26.967Z,0.47
2023-02-19T16:52:56.797Z,0.40
2023-02-19T16:55:24.344Z,0.80
2023-02-19T16:57:51.735Z,0.63
2023-02-19T17:00:32.699Z,1.30
2023-02-19T17:03:03.758Z,0.53
2023-02-19T17:05:32.777Z,2.00
2023-02-19T17:07:59.667Z,2.37
2023-02-19T17:10:27.807Z,0.87
2023-02-19T17:12:56.121Z,0.47
2023-02-19T17:15:23.565Z,0.80
2023-02-19T17:17:50.468Z,0.50
2023-02-19T17:20:24.596Z,0.40
2023-02-19T17:22:51.339Z,0.40
2023-02-19T17:25:20.082Z,0.60
2023-02-19T17:27:46.876Z,0.50
2023-02-19T17:30:19.791Z,0.50
2023-02-19T17:32:46.670Z,0.50
2023-02-19T17:35:13.495Z,0.40
2023-02-19T17:37:41.253Z,0.33
2023-02-19T17:40:33.270Z,1.50
2023-02-19T17:43:01.205Z,0.50
2023-02-19T17:45:28.495Z,0.53
2023-02-19T17:47:55.893Z,0.60
2023-02-19T17:50:26.644Z,0.87
2023-02-19T17:52:53.929Z,0.60
2023-02-19T17:55:20.795Z,0.37
2023-02-19T17:57:49.654Z,0.30
2023-02-19T18:00:36.377Z,0.60
2023-02-19T18:03:04.204Z,0.60
2023-02-19T18:05:31.460Z,0.70
2023-02-19T18:07:58.144Z,0.57
2023-02-19T18:10:25.403Z,0.47
2023-02-19T18:12:52.623Z,1.93
2023-02-19T18:15:26.898Z,0.93
2023-02-19T18:17:55.112Z,1.70
2023-02-19T18:20:27.827Z,3.03
2023-02-19T18:22:56.244Z,1.37
2023-02-19T18:25:23.663Z,1.20
2023-02-19T18:27:50.930Z,0.70
2023-02-19T18:30:19.883Z,0.70
2023-02-19T18:32:48.784Z,0.60
2023-02-19T18:35:17.293Z,1.17
2023-02-19T18:37:44.508Z,0.70
2023-02-19T18:40:12.506Z,0.80
2023-02-19T18:42:40.453Z,0.80
2023-02-19T18:45:07.983Z,0.70
2023-02-19T18:47:35.229Z,0.70
2023-02-19T18:50:02.030Z,0.80
2023-02-19T18:52:28.772Z,0.80
2023-02-19T18:54:57.481Z,0.57
2023-02-19T18:57:26.611Z,0.70
2023-02-19T18:59:54.221Z,0.70
2023-02-19T19:02:21.141Z,0.70
2023-02-19T19:04:53.169Z,0.70
2023-02-19T19:07:21.152Z,0.60
2023-02-19T19:09:48.949Z,0.80
2023-02-19T19:12:16.602Z,0.80
2023-02-19T19:14:45.834Z,0.67
2023-02-19T19:17:12.828Z,1.07
2023-02-19T19:19:41.843Z,0.80
2023-02-19T19:22:08.559Z,0.50
2023-02-19T19:24:35.798Z,0.83
2023-02-19T19:27:02.953Z,0.70
2023-02-19T19:29:29.768Z,0.67
2023-02-19T19:31:57.164Z,0.73
2023-02-19T19:34:24.479Z,0.70
2023-02-19T19:36:51.315Z,1.20
2023-02-19T19:39:18.056Z,1.20
2023-02-19T19:41:44.767Z,0.80
2023-02-19T19:44:12.430Z,2.50
2023-02-19T19:46:44.713Z,2.57
2023-02-19T19:49:16.698Z,2.30
2023-02-19T19:51:43.833Z,1.50
2023-02-19T19:54:11.542Z,1.30
2023-02-19T19:56:47.912Z,1.20
2023-02-19T19:59:16.417Z,0.90
2023-02-19T20:01:52.298Z,1.07
2023-02-19T20:04:21.580Z,1.00
2023-02-19T20:06:49.047Z,1.30
2023-02-19T20:09:18.218Z,1.90
2023-02-19T20:11:50.674Z,1.10
2023-02-19T20:14:19.779Z,1.70
2023-02-19T20:16:47.689Z,1.10
2023-02-19T20:19:16.279Z,1.50
2023-02-19T20:21:51.183Z,1.13
2023-02-19T20:24:26.470Z,1.50
2023-02-19T20:26:58.560Z,1.10
2023-02-19T20:29:28.052Z,0.90
2023-02-19T20:31:56.760Z,1.20
2023-02-19T20:34:23.615Z,1.10
2023-02-19T20:36:51.366Z,1.20
2023-02-19T20:39:20.336Z,1.10
2023-02-19T20:41:52.253Z,0.90
2023-02-19T20:44:19.724Z,0.90
2023-02-19T20:46:49.089Z,1.27
2023-02-19T20:49:17.776Z,1.23
2023-02-19T20:51:48.791Z,1.17
2023-02-19T20:54:17.674Z,1.00
2023-02-19T20:56:49.638Z,1.20
2023-02-19T20:59:18.759Z,1.10
2023-02-19T21:01:45.599Z,1.10
2023-02-19T21:04:13.591Z,1.50
2023-02-19T21:06:40.674Z,1.67
2023-02-19T21:09:07.947Z,1.40
2023-02-19T21:11:34.831Z,1.10
2023-02-19T21:14:02.229Z,1.30
2023-02-19T21:16:30.776Z,1.30
2023-02-19T21:18:58.688Z,1.10
2023-02-19T21:21:26.996Z,1.40
2023-02-19T21:23:56.274Z,1.40
2023-02-19T21:26:24.618Z,1.17
2023-02-19T21:28:53.710Z,1.17
2023-02-19T21:31:22.430Z,1.17
2023-02-19T21:33:50.150Z,1.13
2023-02-19T21:36:18.603Z,1.30
2023-02-19T21:38:45.302Z,1.03
2023-02-19T21:41:12.417Z,1.10
2023-02-19T21:43:39.256Z,1.13
2023-02-19T21:46:08.127Z,1.10
2023-02-19T21:48:36.916Z,0.93
2023-02-19T21:51:03.952Z,1.07
2023-02-19T21:53:30.612Z,1.20
2023-02-19T21:55:59.140Z,1.20
2023-02-19T21:58:26.737Z,1.23
2023-02-19T22:00:54.370Z,1.67
2023-02-19T22:03:22.489Z,1.30
2023-02-19T22:05:49.264Z,1.10
2023-02-19T22:08:17.477Z,1.40
2023-02-19T22:10:44.460Z,1.00
2023-02-19T22:13:11.567Z,1.17
2023-02-19T22:15:38.371Z,1.40
2023-02-19T22:18:05.612Z,1.17
2023-02-19T22:20:34.706Z,1.37
2023-02-19T22:23:01.743Z,1.50
2023-02-19T22:25:28.786Z,1.13
2023-02-19T22:27:55.518Z,1.73
2023-02-19T22:30:22.555Z,2.00
2023-02-19T22:32:49.270Z,1.37
2023-02-19T22:35:16.152Z,1.40
2023-02-19T22:37:43.084Z,1.43
2023-02-19T22:40:10.222Z,1.20
2023-02-19T22:42:37.795Z,1.20
2023-02-19T22:45:06.600Z,1.33
2023-02-19T22:47:33.340Z,1.40
2023-02-19T22:50:00.095Z,1.30
2023-02-19T22:52:28.159Z,1.30
2023-02-19T22:54:56.443Z,1.37
2023-02-19T22:57:23.256Z,1.47
2023-02-19T22:59:50.147Z,1.33
2023-02-19T23:02:17.195Z,1.13
2023-02-19T23:04:44.859Z,1.20
2023-02-19T23:07:13.111Z,1.50
2023-02-19T23:09:39.857Z,1.70
2023-02-19T23:12:11.614Z,1.10
2023-02-19T23:14:38.458Z,1.27
2023-02-19T23:17:05.544Z,1.40
2023-02-19T23:19:33.029Z,2.37
2023-02-19T23:21:59.826Z,1.60
2023-02-19T23:24:26.920Z,1.23
2023-02-19T23:26:54.042Z,1.40
2023-02-19T23:29:26.249Z,1.50
2023-02-19T23:31:55.089Z,1.23
2023-02-19T23:34:22.975Z,1.40
2023-02-19T23:36:50.552Z,1.37
2023-02-19T23:39:19.905Z,1.87
2023-02-19T23:41:48.554Z,1.37
2023-02-19T23:44:16.258Z,2.10
2023-02-19T23:46:44.774Z,1.50
2023-02-19T23:49:12.416Z,8.93
2023-02-19T23:51:39.276Z,5.90
2023-02-19T23:54:06.116Z,5.03
2023-02-19T23:56:33.301Z,4.20
2023-02-19T23:59:00.217Z,2.93
